createdAt,value
2023-03-26T00:01:26.648Z,97927.44
2023-03-26T00:03:57.668Z,97924.63
2023-03-26T00:06:26.616Z,97924.88
2023-03-26T00:08:53.511Z,97927.50
2023-03-26T00:11:22.667Z,97922.19
2023-03-26T00:13:49.185Z,97930.06
2023-03-26T00:16:18.139Z,97926.16
2023-03-26T00:18:44.878Z,97923.19
2023-03-26T00:21:14.010Z,97922.91
2023-03-26T00:23:41.508Z,97925.88
2023-03-26T00:26:11.371Z,97927.16
2023-03-26T00:28:40.438Z,97920.56
2023-03-26T00:31:10.563Z,97905.03
2023-03-26T00:33:40.681Z,97909.19
2023-03-26T00:36:17.194Z,97911.81
2023-03-26T00:38:44.742Z,97905.41
2023-03-26T00:41:24.826Z,97896.19
2023-03-26T00:43:56.759Z,97898.00
2023-03-26T00:46:25.236Z,97895.00
2023-03-26T00:48:51.932Z,97884.81
2023-03-26T00:51:20.600Z,97888.66
2023-03-26T00:53:49.075Z,97889.94
2023-03-26T00:56:16.470Z,97889.41
2023-03-26T00:58:43.374Z,97890.28
2023-03-26T01:01:16.417Z,97886.94
2023-03-26T01:04:00.682Z,97885.22
2023-03-26T01:06:35.756Z,97887.25
2023-03-26T01:09:14.051Z,97878.78
2023-03-26T01:11:40.627Z,97874.97
2023-03-26T01:14:11.815Z,97868.59
2023-03-26T01:16:44.848Z,97859.81
2023-03-26T01:19:22.767Z,97860.16
2023-03-26T01:21:49.399Z,97864.25
2023-03-26T01:24:16.132Z,97856.97
2023-03-26T01:27:09.627Z,97863.63
2023-03-26T01:30:03.751Z,97852.78
2023-03-26T01:32:41.596Z,97845.78
2023-03-26T01:35:22.254Z,97849.31
2023-03-26T01:38:10.583Z,97839.41
2023-03-26T01:40:42.899Z,97839.06
2023-03-26T01:43:19.320Z,97837.41
2023-03-26T01:45:49.482Z,97830.63
2023-03-26T01:48:16.384Z,97827.19
2023-03-26T01:50:43.322Z,97824.72
2023-03-26T01:53:12.608Z,97815.19
2023-03-26T01:56:18.648Z,97812.03
2023-03-26T01:59:17.310Z,97809.50
2023-03-26T02:01:54.707Z,97795.38
2023-03-26T02:04:36.110Z,97782.34
2023-03-26T02:07:09.212Z,97782.09
2023-03-26T02:09:45.717Z,97779.00
2023-03-26T02:12:14.552Z,97771.25
2023-03-26T02:14:42.896Z,97769.44
2023-03-26T02:17:10.847Z,97764.03
2023-03-26T02:19:42.097Z,97755.28
2023-03-26T02:22:15.506Z,97752.81
2023-03-26T02:24:44.439Z,97755.50
2023-03-26T02:27:12.323Z,97753.63
2023-03-26T02:29:40.456Z,97746.44
2023-03-26T02:32:13.475Z,97737.41
2023-03-26T02:34:41.228Z,97740.41
2023-03-26T02:37:08.333Z,97741.03
2023-03-26T02:39:36.258Z,97732.44
2023-03-26T02:42:10.824Z,97729.41
2023-03-26T02:44:44.859Z,97727.06
2023-03-26T02:47:11.293Z,97726.59
2023-03-26T02:49:52.841Z,97720.75
2023-03-26T02:52:45.346Z,97720.38
2023-03-26T02:55:12.036Z,97713.53
2023-03-26T02:57:41.151Z,97715.38
2023-03-26T03:00:14.085Z,97703.94
2023-03-26T03:02:59.280Z,97699.53
2023-03-26T03:05:33.449Z,97705.97
2023-03-26T03:08:14.517Z,97703.41
2023-03-26T03:11:00.884Z,97697.56
2023-03-26T03:13:39.596Z,97690.91
2023-03-26T03:16:07.723Z,97689.03
2023-03-26T03:18:34.240Z,97685.88
2023-03-26T03:21:02.370Z,97676.78
2023-03-26T03:23:28.799Z,97667.66
2023-03-26T03:26:15.481Z,97660.78
2023-03-26T03:28:45.591Z,97660.97
2023-03-26T03:31:16.169Z,97661.44
2023-03-26T03:33:43.357Z,97657.56
2023-03-26T03:36:20.420Z,97654.38
2023-03-26T03:38:50.673Z,97647.88
2023-03-26T03:41:19.834Z,97644.56
2023-03-26T03:43:47.072Z,97639.59
2023-03-26T03:46:21.040Z,97635.81
2023-03-26T03:48:49.868Z,97634.19
2023-03-26T03:51:24.946Z,97621.19
2023-03-26T03:53:59.870Z,97620.56
2023-03-26T03:56:55.923Z,97612.63
2023-03-26T03:59:38.645Z,97609.34
2023-03-26T04:02:21.197Z,97602.97
2023-03-26T04:04:57.459Z,97586.34
2023-03-26T04:07:30.619Z,97586.56
2023-03-26T04:10:09.887Z,97574.47
2023-03-26T04:12:57.579Z,97565.25
2023-03-26T04:15:41.041Z,97555.75
2023-03-26T04:18:10.491Z,97558.56
2023-03-26T04:20:38.636Z,97556.09
2023-03-26T04:23:06.288Z,97547.25
2023-03-26T04:25:33.192Z,97548.09
2023-03-26T04:28:08.999Z,97543.38
2023-03-26T04:30:45.583Z,97539.97
2023-03-26T04:33:35.364Z,97527.53
2023-03-26T04:36:03.591Z,97526.81
2023-03-26T04:38:45.378Z,97523.56
2023-03-26T04:41:15.060Z,97528.25
2023-03-26T04:43:55.293Z,97521.31
2023-03-26T04:46:35.976Z,97514.88
2023-03-26T04:49:11.824Z,97524.31
2023-03-26T04:51:41.816Z,97528.66
2023-03-26T04:54:28.394Z,97515.59
2023-03-26T04:57:05.492Z,97512.63
2023-03-26T04:59:41.217Z,97513.19
2023-03-26T05:02:12.951Z,97508.53
2023-03-26T05:04:49.837Z,97501.97
2023-03-26T05:07:20.468Z,97499.28
2023-03-26T05:09:50.238Z,97492.44
2023-03-26T05:12:22.289Z,97495.44
2023-03-26T05:14:56.645Z,97473.81
2023-03-26T05:17:41.497Z,97483.16
2023-03-26T05:20:20.920Z,97472.00
2023-03-26T05:22:49.556Z,97466.31
2023-03-26T05:25:23.058Z,97458.91
2023-03-26T05:27:49.544Z,97452.06
2023-03-26T05:30:20.256Z,97458.34
2023-03-26T05:32:51.840Z,97449.88
2023-03-26T05:35:23.621Z,97448.44
2023-03-26T05:37:51.406Z,97439.03
2023-03-26T05:40:21.801Z,97435.03
2023-03-26T05:42:55.090Z,97428.81
2023-03-26T05:45:24.293Z,97429.00
2023-03-26T05:47:54.108Z,97426.03
2023-03-26T05:50:23.110Z,97417.47
2023-03-26T05:52:51.088Z,97407.75
2023-03-26T05:55:35.814Z,97407.44
2023-03-26T05:58:20.729Z,97384.13
2023-03-26T06:01:10.553Z,97384.94
2023-03-26T06:03:55.802Z,97371.38
2023-03-26T06:06:26.929Z,97367.22
2023-03-26T06:09:02.382Z,97364.50
2023-03-26T06:11:29.938Z,97353.91
2023-03-26T06:13:56.406Z,97355.13
2023-03-26T06:16:27.432Z,97353.75
2023-03-26T06:19:14.967Z,97357.03
2023-03-26T06:21:50.415Z,97357.13
2023-03-26T06:24:22.966Z,97350.22
2023-03-26T06:27:04.324Z,97347.50
2023-03-26T06:29:30.786Z,97346.22
2023-03-26T06:32:19.702Z,97347.06
2023-03-26T06:37:28.578Z,97337.66
2023-03-26T06:39:59.686Z,97329.81
2023-03-26T06:43:08.301Z,97328.78
2023-03-26T06:45:52.513Z,97341.41
2023-03-26T06:48:42.743Z,97326.00
2023-03-26T06:51:21.057Z,97316.66
2023-03-26T06:54:06.083Z,97316.66
2023-03-26T06:56:50.888Z,97309.97
2023-03-26T06:59:55.827Z,97301.31
2023-03-26T07:02:40.850Z,97302.16
2023-03-26T07:05:26.173Z,97292.44
2023-03-26T07:08:11.077Z,97294.03
2023-03-26T07:10:56.206Z,97292.81
2023-03-26T07:13:42.834Z,97291.50
2023-03-26T07:16:27.760Z,97289.00
2023-03-26T07:19:33.098Z,97292.22
2023-03-26T07:22:00.896Z,97279.22
2023-03-26T07:24:59.904Z,97289.69
2023-03-26T07:28:08.043Z,97282.38
2023-03-26T07:31:07.777Z,97274.72
2023-03-26T07:33:58.741Z,97268.28
2023-03-26T07:36:57.625Z,97269.31
2023-03-26T07:39:51.102Z,97247.16
2023-03-26T07:43:06.340Z,97237.59
2023-03-26T07:45:54.303Z,97229.91
2023-03-26T07:48:44.224Z,97227.63
2023-03-26T07:51:32.913Z,97210.50
2023-03-26T07:54:18.088Z,97204.69
2023-03-26T07:57:26.010Z,97197.66
2023-03-26T08:00:23.678Z,97184.41
2023-03-26T08:03:07.858Z,97185.81
2023-03-26T08:06:12.674Z,97184.03
2023-03-26T08:09:09.744Z,97181.66
2023-03-26T08:11:58.711Z,97177.41
2023-03-26T08:14:43.561Z,97178.44
2023-03-26T08:17:14.931Z,97165.13
2023-03-26T08:19:44.762Z,97168.13
2023-03-26T08:22:20.694Z,97161.88
2023-03-26T08:24:59.329Z,97157.97
2023-03-26T08:27:40.126Z,97162.81
2023-03-26T08:30:10.786Z,97165.91
2023-03-26T08:32:40.864Z,97157.41
2023-03-26T08:35:11.449Z,97161.59
2023-03-26T08:37:39.132Z,97162.53
2023-03-26T08:40:06.716Z,97168.31
2023-03-26T08:42:47.702Z,97161.56
2023-03-26T08:45:36.526Z,97175.91
2023-03-26T08:48:30.666Z,97174.53
2023-03-26T08:51:10.506Z,97169.91
2023-03-26T08:53:45.942Z,97169.50
2023-03-26T08:56:32.278Z,97173.94
2023-03-26T08:59:34.367Z,97161.81
2023-03-26T09:02:27.055Z,97164.94
2023-03-26T09:05:21.043Z,97159.94
2023-03-26T09:08:02.829Z,97157.44
2023-03-26T09:10:36.996Z,97165.34
2023-03-26T09:13:15.643Z,97166.94
2023-03-26T09:15:53.904Z,97158.88
2023-03-26T09:18:38.926Z,97147.31
2023-03-26T09:21:39.376Z,97147.34
2023-03-26T09:24:27.433Z,97149.94
2023-03-26T09:27:08.539Z,97139.41
2023-03-26T09:29:37.681Z,97134.13
2023-03-26T09:32:31.735Z,97134.38
2023-03-26T09:35:32.714Z,97126.28
2023-03-26T09:38:10.943Z,97122.78
2023-03-26T09:40:42.399Z,97125.41
2023-03-26T09:43:40.874Z,97125.59
2023-03-26T09:46:25.912Z,97111.16
2023-03-26T09:49:45.785Z,97118.03
2023-03-26T09:52:44.242Z,97114.34
2023-03-26T09:55:49.687Z,97107.50
2023-03-26T09:58:49.775Z,97106.81
2023-03-26T10:01:41.049Z,97109.75
2023-03-26T10:04:38.530Z,97109.78
2023-03-26T10:07:30.137Z,97113.56
2023-03-26T10:10:06.855Z,97125.38
2023-03-26T10:12:42.007Z,97125.16
2023-03-26T10:15:34.797Z,97122.28
2023-03-26T10:18:02.671Z,97128.19
2023-03-26T10:21:01.674Z,97127.63
2023-03-26T10:23:45.142Z,97122.81
2023-03-26T10:26:17.446Z,97124.06
2023-03-26T10:29:13.094Z,97125.16
2023-03-26T10:31:58.695Z,97116.22
2023-03-26T10:34:28.933Z,97113.50
2023-03-26T10:37:36.204Z,97099.84
2023-03-26T10:40:24.303Z,97114.13
2023-03-26T10:43:03.008Z,97110.63
2023-03-26T10:46:10.143Z,97103.94
2023-03-26T10:48:50.881Z,97114.66
2023-03-26T10:51:36.268Z,97118.25
2023-03-26T10:54:34.954Z,97132.94
2023-03-26T10:57:23.178Z,97142.00
2023-03-26T10:59:50.276Z,97147.69
2023-03-26T11:02:35.899Z,97145.72
2023-03-26T11:05:17.541Z,97137.91
2023-03-26T11:07:54.361Z,97139.69
2023-03-26T11:10:35.247Z,97142.06
2023-03-26T11:13:23.254Z,97146.69
2023-03-26T11:15:56.719Z,97142.91
2023-03-26T11:18:27.960Z,97131.69
2023-03-26T11:21:19.075Z,97143.28
2023-03-26T11:24:05.001Z,97129.78
2023-03-26T11:26:52.790Z,97125.97
2023-03-26T11:29:57.344Z,97127.13
2023-03-26T11:32:28.959Z,97128.41
2023-03-26T11:35:14.263Z,97145.41
2023-03-26T11:37:40.937Z,97136.72
2023-03-26T11:40:15.449Z,97119.84
2023-03-26T11:42:43.587Z,97119.63
2023-03-26T11:45:24.047Z,97139.22
2023-03-26T11:47:54.754Z,97133.81
2023-03-26T11:50:26.980Z,97129.25
2023-03-26T11:53:12.375Z,97118.03
2023-03-26T11:55:44.144Z,97126.25
2023-03-26T11:58:26.002Z,97110.25
2023-03-26T12:00:54.659Z,97115.69
2023-03-26T12:03:21.612Z,97097.16
2023-03-26T12:05:51.785Z,97108.66
2023-03-26T12:08:28.146Z,97107.44
2023-03-26T12:11:08.867Z,97115.00
2023-03-26T12:13:50.690Z,97114.53
2023-03-26T12:16:20.100Z,97107.66
2023-03-26T12:19:03.451Z,97092.34
2023-03-26T12:21:29.921Z,97110.03
2023-03-26T12:24:01.991Z,97120.03
2023-03-26T12:26:44.744Z,97100.25
2023-03-26T12:29:13.744Z,97098.66
2023-03-26T12:31:56.703Z,97087.75
2023-03-26T12:34:36.351Z,97081.00
2023-03-26T12:37:05.501Z,97073.25
2023-03-26T12:40:09.731Z,97068.00
2023-03-26T12:44:50.228Z,97069.47
2023-03-26T12:45:28.526Z,97071.19
2023-03-26T12:48:03.940Z,97059.97
2023-03-26T12:50:44.781Z,97049.03
2023-03-26T12:53:44.578Z,97059.59
2023-03-26T12:56:36.095Z,97053.59
2023-03-26T12:59:36.372Z,97053.06
2023-03-26T13:02:35.629Z,97056.84
2023-03-26T13:05:17.849Z,97046.41
2023-03-26T13:08:23.338Z,97043.63
2023-03-26T13:11:00.784Z,97047.03
2023-03-26T13:13:46.158Z,97044.69
2023-03-26T13:16:22.338Z,97046.50
2023-03-26T13:19:23.421Z,97050.75
2023-03-26T13:22:05.606Z,97043.56
2023-03-26T13:24:34.990Z,97044.75
2023-03-26T13:27:35.609Z,97045.47
2023-03-26T13:30:22.717Z,97054.69
2023-03-26T13:33:04.047Z,97048.38
2023-03-26T13:35:43.971Z,97040.38
2023-03-26T13:38:36.828Z,97032.06
2023-03-26T13:41:30.012Z,97040.72
2023-03-26T13:44:28.951Z,97035.84
2023-03-26T13:47:03.294Z,97040.09
2023-03-26T13:49:48.284Z,97021.44
2023-03-26T13:52:17.687Z,97037.78
2023-03-26T13:54:54.465Z,97032.22
2023-03-26T13:57:40.101Z,97022.13
2023-03-26T14:00:55.018Z,97035.00
2023-03-26T14:03:41.107Z,97037.00
2023-03-26T14:06:16.358Z,97036.28
2023-03-26T14:08:46.933Z,97048.22
2023-03-26T14:11:21.118Z,97043.09
2023-03-26T14:14:10.135Z,97047.44
2023-03-26T14:16:44.210Z,97045.81
2023-03-26T14:19:50.000Z,97038.50
2023-03-26T14:22:30.513Z,97033.06
2023-03-26T14:25:19.984Z,97023.38
2023-03-26T14:28:01.368Z,97031.84
2023-03-26T14:30:51.089Z,97037.81
2023-03-26T14:33:33.918Z,97044.25
2023-03-26T14:36:18.400Z,97051.69
2023-03-26T14:39:09.232Z,97054.44
2023-03-26T14:41:56.504Z,97052.63
2023-03-26T14:44:51.064Z,97053.09
2023-03-26T14:47:18.990Z,97071.09
2023-03-26T14:50:10.622Z,97062.50
2023-03-26T14:52:50.190Z,97074.63
2023-03-26T14:55:22.930Z,97078.75
2023-03-26T14:58:09.271Z,97073.81
2023-03-26T15:01:06.897Z,97070.13
2023-03-26T15:03:51.918Z,97066.69
2023-03-26T15:06:38.479Z,97059.94
2023-03-26T15:09:39.166Z,97064.59
2023-03-26T15:12:32.748Z,97059.78
2023-03-26T15:15:54.049Z,97062.75
2023-03-26T15:18:27.605Z,97062.13
2023-03-26T15:21:06.224Z,97057.75
2023-03-26T15:23:51.310Z,97058.53
2023-03-26T15:26:27.437Z,97070.25
2023-03-26T15:29:06.356Z,97077.84
2023-03-26T15:31:47.571Z,97094.13
2023-03-26T15:34:33.885Z,97081.38
2023-03-26T15:37:17.098Z,97095.84
2023-03-26T15:40:25.263Z,97096.31
2023-03-26T15:43:06.478Z,97105.34
2023-03-26T15:45:38.479Z,97101.22
2023-03-26T15:48:11.784Z,97111.34
2023-03-26T15:51:03.628Z,97105.06
2023-03-26T15:53:50.534Z,97110.69
2023-03-26T15:56:56.611Z,97109.41
2023-03-26T15:59:54.264Z,97122.13
2023-03-26T16:02:40.101Z,97124.25
2023-03-26T16:05:21.613Z,97137.81
2023-03-26T16:08:08.634Z,97154.06
2023-03-26T16:10:56.477Z,97178.34
2023-03-26T16:13:32.134Z,97196.31
2023-03-26T16:16:04.743Z,97220.16
2023-03-26T16:18:38.249Z,97215.56
2023-03-26T16:21:30.880Z,97215.56
2023-03-26T16:24:02.179Z,97209.31
2023-03-26T16:26:31.712Z,97191.97
2023-03-26T16:29:22.651Z,97177.00
2023-03-26T16:32:07.521Z,97173.38
2023-03-26T16:35:01.893Z,97177.03
2023-03-26T16:37:50.696Z,97167.53
2023-03-26T16:40:20.184Z,97176.59
2023-03-26T16:43:03.268Z,97183.88
2023-03-26T16:45:37.138Z,97176.84
2023-03-26T16:48:21.485Z,97180.47
2023-03-26T16:51:01.936Z,97178.44
2023-03-26T16:53:46.202Z,97178.06
2023-03-26T16:56:26.136Z,97179.91
2023-03-26T16:58:56.102Z,97183.91
2023-03-26T17:01:48.110Z,97177.25
2023-03-26T17:04:23.342Z,97176.22
2023-03-26T17:07:15.033Z,97173.63
2023-03-26T17:10:18.850Z,97175.00
2023-03-26T17:13:00.004Z,97168.31
2023-03-26T17:15:36.468Z,97170.53
2023-03-26T17:18:35.750Z,97164.69
2023-03-26T17:21:16.232Z,97158.06
2023-03-26T17:24:15.694Z,97150.19
2023-03-26T17:26:56.332Z,97144.94
2023-03-26T17:29:34.128Z,97139.28
2023-03-26T17:32:11.491Z,97137.69
2023-03-26T17:34:37.912Z,97137.72
2023-03-26T17:37:32.145Z,97136.50
2023-03-26T17:40:01.615Z,97145.94
2023-03-26T17:42:32.711Z,97151.63
2023-03-26T17:45:23.363Z,97138.47
2023-03-26T17:47:58.747Z,97140.34
2023-03-26T17:50:32.022Z,97148.97
2023-03-26T17:53:02.037Z,97143.97
2023-03-26T17:55:36.468Z,97152.44
2023-03-26T17:58:22.198Z,97142.75
2023-03-26T18:01:04.017Z,97149.00
2023-03-26T18:03:36.103Z,97154.66
2023-03-26T18:06:18.073Z,97151.22
2023-03-26T18:09:25.213Z,97145.16
2023-03-26T18:12:26.454Z,97156.47
2023-03-26T18:15:23.763Z,97156.47
2023-03-26T18:17:50.414Z,97159.06
2023-03-26T18:20:26.366Z,97153.84
2023-03-26T18:22:53.394Z,97161.91
2023-03-26T18:25:27.116Z,97171.59
2023-03-26T18:27:53.903Z,97167.16
2023-03-26T18:30:23.452Z,97172.81
2023-03-26T18:32:52.564Z,97173.00
2023-03-26T18:35:21.483Z,97184.09
2023-03-26T18:37:51.862Z,97188.13
2023-03-26T18:40:21.311Z,97185.94
2023-03-26T18:42:55.039Z,97188.94
2023-03-26T18:45:51.601Z,97187.34
2023-03-26T18:48:26.143Z,97185.91
2023-03-26T18:50:56.445Z,97190.38
2023-03-26T18:53:32.003Z,97195.81
2023-03-26T18:55:58.564Z,97199.63
2023-03-26T18:58:39.107Z,97193.97
2023-03-26T19:01:17.164Z,97192.56
2023-03-26T19:03:50.824Z,97202.47
2023-03-26T19:06:17.711Z,97197.81
2023-03-26T19:08:46.346Z,97199.41
2023-03-26T19:11:16.838Z,97204.25
2023-03-26T19:13:43.517Z,97204.47
2023-03-26T19:16:24.821Z,97202.84
2023-03-26T19:18:52.341Z,97206.47
2023-03-26T19:21:23.144Z,97209.34
2023-03-26T19:23:51.739Z,97206.28
2023-03-26T19:26:19.030Z,97212.34
2023-03-26T19:28:50.783Z,97210.31
2023-03-26T19:31:33.042Z,97219.38
2023-03-26T19:34:14.728Z,97225.22
2023-03-26T19:36:59.467Z,97219.78
2023-03-26T19:39:40.333Z,97222.22
2023-03-26T19:42:11.359Z,97222.41
2023-03-26T19:44:42.041Z,97222.41
2023-03-26T19:47:17.364Z,97229.47
2023-03-26T19:49:56.172Z,97224.03
2023-03-26T19:52:27.626Z,97222.59
2023-03-26T19:55:01.164Z,97222.81
2023-03-26T19:57:32.237Z,97235.31
2023-03-26T19:59:59.568Z,97231.34
2023-03-26T20:02:27.405Z,97233.16
2023-03-26T20:04:53.930Z,97236.78
2023-03-26T20:07:35.862Z,97240.81
2023-03-26T20:10:05.359Z,97242.03
2023-03-26T20:12:32.071Z,97233.53
2023-03-26T20:14:58.632Z,97247.28
2023-03-26T20:17:25.216Z,97248.88
2023-03-26T20:19:54.346Z,97254.31
2023-03-26T20:22:20.790Z,97252.94
2023-03-26T20:24:47.304Z,97261.59
2023-03-26T20:27:14.432Z,97266.63
2023-03-26T20:29:42.201Z,97267.84
2023-03-26T20:32:27.389Z,97270.06
2023-03-26T20:34:54.064Z,97278.94
2023-03-26T20:37:20.534Z,97280.75
2023-03-26T20:39:47.079Z,97282.16
2023-03-26T20:42:15.436Z,97284.19
2023-03-26T20:44:42.784Z,97293.47
2023-03-26T20:47:12.622Z,97286.19
2023-03-26T20:49:40.160Z,97295.28
2023-03-26T20:52:06.676Z,97296.69
2023-03-26T20:54:33.245Z,97296.25
2023-03-26T20:56:59.888Z,97306.72
2023-03-26T20:59:27.863Z,97312.97
2023-03-26T21:01:56.567Z,97302.84
2023-03-26T21:04:24.781Z,97312.75
2023-03-26T21:06:55.111Z,97315.56
2023-03-26T21:09:25.127Z,97314.13
2023-03-26T21:12:09.665Z,97319.59
2023-03-26T21:14:44.073Z,97326.25
2023-03-26T21:17:16.108Z,97331.25
2023-03-26T21:19:43.751Z,97333.44
2023-03-26T21:22:25.677Z,97338.28
2023-03-26T21:25:05.459Z,97344.09
2023-03-26T21:27:51.526Z,97355.56
2023-03-26T21:30:18.322Z,97361.03
2023-03-26T21:32:46.149Z,97372.09
2023-03-26T21:35:14.766Z,97368.03
2023-03-26T21:37:45.563Z,97374.09
2023-03-26T21:40:17.023Z,97394.25
2023-03-26T21:42:53.412Z,97388.78
2023-03-26T21:45:21.304Z,97396.84
2023-03-26T21:47:48.533Z,97401.91
2023-03-26T21:50:21.699Z,97402.31
2023-03-26T21:52:48.851Z,97406.97
2023-03-26T21:55:21.551Z,97416.81
2023-03-26T21:58:11.843Z,97419.63
2023-03-26T22:01:08.394Z,97422.22
2023-03-26T22:03:50.771Z,97438.13
2023-03-26T22:06:26.559Z,97433.91
2023-03-26T22:08:53.235Z,97447.81
2023-03-26T22:11:19.872Z,97437.94
2023-03-26T22:13:46.621Z,97450.84
2023-03-26T22:16:13.111Z,97436.53
2023-03-26T22:18:39.603Z,97444.75
2023-03-26T22:21:06.995Z,97454.41
2023-03-26T22:23:38.148Z,97469.91
2023-03-26T22:26:05.873Z,97473.94
2023-03-26T22:28:32.399Z,97471.75
2023-03-26T22:30:59.226Z,97475.19
2023-03-26T22:33:26.631Z,97477.78
2023-03-26T22:35:55.467Z,97481.38
2023-03-26T22:38:21.938Z,97492.66
2023-03-26T22:40:56.693Z,97493.06
2023-03-26T22:43:23.715Z,97497.06
2023-03-26T22:45:51.297Z,97500.25
2023-03-26T22:48:18.264Z,97520.56
2023-03-26T22:50:45.081Z,97520.63
2023-03-26T22:53:11.922Z,97526.66
2023-03-26T22:55:38.415Z,97533.09
2023-03-26T22:58:04.859Z,97548.22
2023-03-26T23:00:32.285Z,97548.50
2023-03-26T23:03:00.378Z,97552.84
2023-03-26T23:05:27.675Z,97566.41
2023-03-26T23:07:54.117Z,97574.06
2023-03-26T23:10:21.668Z,97581.09
2023-03-26T23:12:48.586Z,97580.22
2023-03-26T23:15:15.104Z,97583.97
2023-03-26T23:17:41.614Z,97600.69
2023-03-26T23:20:15.259Z,97604.47
2023-03-26T23:22:43.019Z,97611.28
2023-03-26T23:25:11.005Z,97615.44
2023-03-26T23:27:37.640Z,97619.84
2023-03-26T23:30:05.253Z,97620.59
2023-03-26T23:32:31.792Z,97628.00
2023-03-26T23:34:58.465Z,97638.84
2023-03-26T23:37:24.938Z,97653.53
2023-03-26T23:39:52.163Z,97655.34
2023-03-26T23:42:28.374Z,97659.97
2023-03-26T23:44:56.598Z,97668.09
2023-03-26T23:47:23.135Z,97661.03
2023-03-26T23:49:49.865Z,97677.28
2023-03-26T23:52:16.597Z,97690.03
2023-03-26T23:54:43.067Z,97693.00
2023-03-26T23:57:10.502Z,97688.13
2023-03-26T23:59:37.086Z,97696.88
